createdAt,value
2017-06-16T00:00:25.209Z,99.99
2017-06-16T00:01:34.097Z,99.99
2017-06-16T00:02:43.634Z,99.99
2017-06-16T00:03:52.521Z,99.99
2017-06-16T00:05:01.416Z,99.99
2017-06-16T00:06:11.004Z,99.99
2017-06-16T00:07:19.891Z,99.99
2017-06-16T00:08:29.104Z,99.99
2017-06-16T00:09:38.316Z,99.99
2017-06-16T00:10:47.201Z,99.99
2017-06-16T00:11:56.293Z,99.99
2017-06-16T00:13:05.186Z,99.99
2017-06-16T00:14:14.403Z,99.99
2017-06-16T00:15:23.293Z,99.99
2017-06-16T00:16:32.182Z,99.99
2017-06-16T00:17:41.395Z,99.99
2017-06-16T00:18:50.283Z,99.99
2017-06-16T00:19:59.175Z,99.99
2017-06-16T00:21:09.038Z,99.99
2017-06-16T00:22:17.927Z,99.99
2017-06-16T00:23:26.966Z,99.99
2017-06-16T00:24:36.501Z,99.99
2017-06-16T00:25:45.710Z,99.99
2017-06-16T00:26:54.941Z,99.99
2017-06-16T00:28:03.830Z,99.99
2017-06-16T00:29:12.769Z,99.99
2017-06-16T00:30:21.986Z,99.99
2017-06-16T00:31:31.202Z,99.99
2017-06-16T00:32:40.087Z,99.99
2017-06-16T00:33:49.297Z,99.99
2017-06-16T00:34:58.665Z,99.99
2017-06-16T00:36:07.553Z,99.99
2017-06-16T00:37:16.441Z,99.99
2017-06-16T00:38:25.325Z,99.99
2017-06-16T00:39:34.247Z,99.99
2017-06-16T00:40:43.285Z,99.99
2017-06-16T00:41:52.516Z,99.99
2017-06-16T00:43:01.504Z,99.99
2017-06-16T00:44:10.392Z,99.99
2017-06-16T00:45:19.603Z,99.99
2017-06-16T00:46:28.638Z,99.99
2017-06-16T00:47:37.528Z,99.99
2017-06-16T00:48:47.068Z,99.99
2017-06-16T00:49:56.279Z,99.99
2017-06-16T00:51:05.174Z,99.99
2017-06-16T00:52:14.116Z,99.99
2017-06-16T00:53:23.006Z,99.99
2017-06-16T00:54:32.214Z,99.99
2017-06-16T00:55:41.104Z,99.99
2017-06-16T00:56:50.329Z,99.99
2017-06-16T00:58:00.353Z,99.99
2017-06-16T00:59:09.242Z,99.99
2017-06-16T01:00:18.124Z,99.99
2017-06-16T01:01:27.012Z,99.99
2017-06-16T01:02:35.902Z,99.99
2017-06-16T01:03:45.115Z,99.99
2017-06-16T01:04:54.006Z,99.99
2017-06-16T01:06:02.894Z,99.99
2017-06-16T01:07:11.782Z,99.99
2017-06-16T01:08:20.998Z,99.99
2017-06-16T01:09:30.040Z,99.99
2017-06-16T01:10:39.254Z,99.99
2017-06-16T01:11:48.466Z,99.99
2017-06-16T01:12:57.679Z,99.99
2017-06-16T01:14:06.567Z,99.99
2017-06-16T01:15:15.506Z,99.99
2017-06-16T01:16:24.716Z,99.99
2017-06-16T01:17:33.604Z,99.99
2017-06-16T01:18:42.821Z,99.99
2017-06-16T01:19:52.032Z,99.99
2017-06-16T01:21:00.975Z,99.99
2017-06-16T01:22:10.195Z,99.99
2017-06-16T01:23:19.406Z,99.99
2017-06-16T01:24:28.618Z,99.99
2017-06-16T01:25:37.506Z,99.99
2017-06-16T01:26:46.644Z,99.99
2017-06-16T01:27:56.180Z,99.99
2017-06-16T01:29:05.430Z,99.99
2017-06-16T01:30:14.319Z,99.99
2017-06-16T01:31:23.205Z,99.99
2017-06-16T01:32:32.240Z,99.99
2017-06-16T01:33:41.778Z,99.99
2017-06-16T01:34:50.668Z,99.99
2017-06-16T01:35:59.878Z,99.99
2017-06-16T01:37:09.091Z,99.99
2017-06-16T01:38:17.978Z,99.99
2017-06-16T01:39:26.861Z,99.99
2017-06-16T01:40:35.749Z,99.99
2017-06-16T01:41:44.633Z,99.99
2017-06-16T01:42:53.527Z,99.99
2017-06-16T01:44:02.564Z,99.99
2017-06-16T01:45:11.779Z,99.99
2017-06-16T01:46:20.996Z,99.99
2017-06-16T01:47:29.889Z,99.99
2017-06-16T01:48:38.776Z,99.99
2017-06-16T01:49:47.965Z,99.99
2017-06-16T01:50:57.182Z,99.99
2017-06-16T01:52:06.068Z,99.99
2017-06-16T01:53:14.953Z,99.99
2017-06-16T01:54:23.840Z,99.99
2017-06-16T01:55:32.879Z,99.99
2017-06-16T01:56:41.771Z,99.99
2017-06-16T01:57:50.665Z,99.99
2017-06-16T01:58:59.881Z,99.99
2017-06-16T02:00:08.769Z,99.99
2017-06-16T02:01:18.132Z,99.99
2017-06-16T02:02:27.019Z,99.99
2017-06-16T02:03:35.910Z,99.99
2017-06-16T02:04:44.796Z,99.99
2017-06-16T02:05:54.002Z,99.99
2017-06-16T02:07:03.239Z,99.99
2017-06-16T02:08:12.126Z,99.99
2017-06-16T02:09:21.019Z,99.99
2017-06-16T02:10:29.905Z,99.99
2017-06-16T02:11:38.794Z,99.99
2017-06-16T02:12:47.983Z,99.99
2017-06-16T02:13:56.870Z,99.99
2017-06-16T02:15:06.082Z,99.99
2017-06-16T02:16:14.967Z,99.99
2017-06-16T02:17:24.182Z,99.99
2017-06-16T02:18:33.073Z,99.99
2017-06-16T02:19:41.961Z,99.99
2017-06-16T02:20:51.177Z,99.99
2017-06-16T02:22:00.395Z,99.99
2017-06-16T02:23:09.293Z,99.99
2017-06-16T02:24:18.656Z,99.99
2017-06-16T02:25:27.544Z,99.99
2017-06-16T02:26:36.435Z,99.99
2017-06-16T02:27:45.325Z,99.99
2017-06-16T02:28:54.876Z,99.99
2017-06-16T02:30:04.512Z,99.99
2017-06-16T02:31:13.442Z,99.99
2017-06-16T02:32:22.659Z,99.99
2017-06-16T02:33:31.874Z,99.99
2017-06-16T02:34:41.091Z,99.99
2017-06-16T02:35:49.996Z,99.99
2017-06-16T02:36:59.854Z,99.99
2017-06-16T02:38:08.745Z,99.99
2017-06-16T02:39:17.961Z,99.99
2017-06-16T02:40:27.175Z,99.99
2017-06-16T02:41:36.215Z,99.99
2017-06-16T02:42:45.431Z,99.99
2017-06-16T02:43:54.357Z,99.99
2017-06-16T02:45:03.247Z,99.99
2017-06-16T02:46:12.136Z,99.99
2017-06-16T02:47:21.501Z,99.99
2017-06-16T02:48:30.712Z,99.99
2017-06-16T02:49:39.604Z,99.99
2017-06-16T02:50:48.816Z,99.99
2017-06-16T02:51:57.704Z,99.99
2017-06-16T02:53:06.689Z,99.99
2017-06-16T02:54:15.900Z,99.99
2017-06-16T02:55:25.111Z,99.99
2017-06-16T02:56:33.998Z,99.99
2017-06-16T02:57:43.210Z,99.99
2017-06-16T02:58:52.761Z,99.99
2017-06-16T03:00:01.972Z,99.99
2017-06-16T03:01:10.860Z,99.99
2017-06-16T03:02:20.072Z,99.99
2017-06-16T03:03:28.956Z,99.99
2017-06-16T03:04:37.888Z,99.99
2017-06-16T03:05:46.777Z,99.99
2017-06-16T03:06:55.670Z,99.99
2017-06-16T03:08:04.562Z,99.99
2017-06-16T03:09:13.777Z,99.99
2017-06-16T03:10:22.818Z,99.99
2017-06-16T03:11:31.706Z,99.99
2017-06-16T03:12:40.591Z,99.99
2017-06-16T03:13:49.803Z,99.99
2017-06-16T03:14:58.691Z,99.99
2017-06-16T03:16:08.209Z,99.99
2017-06-16T03:17:17.097Z,99.99
2017-06-16T03:18:25.983Z,99.99
2017-06-16T03:19:34.869Z,99.99
2017-06-16T03:20:43.759Z,99.99
2017-06-16T03:21:52.799Z,99.99
2017-06-16T03:23:01.685Z,99.99
2017-06-16T03:24:11.547Z,99.99
2017-06-16T03:25:20.434Z,99.99
2017-06-16T03:26:29.325Z,99.99
2017-06-16T03:27:39.009Z,99.99
2017-06-16T03:28:47.893Z,99.99
2017-06-16T03:29:56.781Z,99.99
2017-06-16T03:31:05.988Z,99.99
2017-06-16T03:32:15.525Z,99.99
2017-06-16T03:33:24.418Z,99.99
2017-06-16T03:34:33.634Z,99.99
2017-06-16T03:35:42.519Z,99.99
2017-06-16T03:36:51.730Z,99.99
2017-06-16T03:38:01.269Z,99.99
2017-06-16T03:39:10.579Z,99.99
2017-06-16T03:40:19.475Z,99.99
2017-06-16T03:41:28.361Z,99.99
2017-06-16T03:42:37.572Z,99.99
2017-06-16T03:43:46.458Z,99.99
2017-06-16T03:44:55.504Z,99.99
2017-06-16T03:46:04.715Z,99.99
2017-06-16T03:47:13.609Z,99.99
2017-06-16T03:48:22.496Z,99.99
2017-06-16T03:49:31.381Z,99.99
2017-06-16T03:50:40.369Z,99.99
2017-06-16T03:51:49.583Z,99.99
2017-06-16T03:52:59.451Z,99.99
2017-06-16T03:54:08.340Z,99.99
2017-06-16T03:55:17.552Z,99.99
2017-06-16T03:56:26.541Z,99.99
2017-06-16T03:57:35.753Z,99.99
2017-06-16T03:58:44.966Z,99.99
2017-06-16T03:59:54.500Z,99.99
2017-06-16T04:01:03.389Z,99.99
2017-06-16T04:02:12.516Z,99.99
2017-06-16T04:03:21.401Z,99.99
2017-06-16T04:04:30.286Z,99.99
2017-06-16T04:05:39.177Z,99.99
2017-06-16T04:06:48.066Z,99.99
2017-06-16T04:07:57.103Z,99.99
2017-06-16T04:09:05.991Z,99.99
2017-06-16T04:10:14.878Z,99.99
2017-06-16T04:11:23.768Z,99.99
2017-06-16T04:12:32.985Z,99.99
2017-06-16T04:13:41.870Z,99.99
2017-06-16T04:14:51.083Z,99.99
2017-06-16T04:16:00.345Z,99.99
2017-06-16T04:17:09.555Z,99.99
2017-06-16T04:18:18.441Z,99.99
2017-06-16T04:19:27.480Z,99.99
2017-06-16T04:20:36.691Z,99.99
2017-06-16T04:21:45.907Z,99.99
2017-06-16T04:22:54.794Z,99.99
2017-06-16T04:24:04.331Z,99.99
2017-06-16T04:25:13.273Z,99.99
2017-06-16T04:26:22.163Z,99.99
2017-06-16T04:27:31.380Z,99.99
2017-06-16T04:28:40.265Z,99.99
2017-06-16T04:29:49.154Z,99.99
2017-06-16T04:30:58.465Z,99.99
2017-06-16T04:32:07.679Z,99.99
2017-06-16T04:33:16.892Z,99.99
2017-06-16T04:34:26.104Z,99.99
2017-06-16T04:35:35.317Z,99.99
2017-06-16T04:36:44.204Z,99.99
2017-06-16T04:37:53.093Z,99.99
2017-06-16T04:39:02.632Z,99.99
2017-06-16T04:40:11.522Z,99.99
2017-06-16T04:41:20.411Z,99.99
2017-06-16T04:42:29.400Z,99.99
2017-06-16T04:43:38.286Z,99.99
2017-06-16T04:44:47.496Z,99.99
2017-06-16T04:45:56.390Z,99.99
2017-06-16T04:47:05.604Z,99.99
2017-06-16T04:48:14.638Z,99.99
2017-06-16T04:49:23.523Z,99.99
2017-06-16T04:50:32.413Z,99.99
2017-06-16T04:51:41.302Z,99.99
2017-06-16T04:52:50.196Z,99.99
2017-06-16T04:53:59.234Z,99.99
2017-06-16T04:55:08.124Z,99.99
2017-06-16T04:56:17.010Z,99.99
2017-06-16T04:57:25.906Z,99.99
2017-06-16T04:58:35.134Z,99.99
2017-06-16T04:59:44.730Z,99.99
2017-06-16T05:00:53.946Z,99.99
2017-06-16T05:02:02.834Z,99.99
2017-06-16T05:03:12.043Z,99.99
2017-06-16T05:04:20.933Z,99.99
2017-06-16T05:05:30.148Z,99.99
2017-06-16T05:06:39.037Z,99.99
2017-06-16T05:07:47.920Z,99.99
2017-06-16T05:08:57.143Z,99.99
2017-06-16T05:10:06.032Z,99.99
2017-06-16T05:11:15.399Z,99.99
2017-06-16T05:12:24.285Z,99.99
2017-06-16T05:13:33.173Z,99.99
2017-06-16T05:14:42.058Z,99.99
2017-06-16T05:15:50.946Z,99.99
2017-06-16T05:16:59.982Z,99.99
2017-06-16T05:18:08.873Z,99.99
2017-06-16T05:19:18.089Z,99.99
2017-06-16T05:20:26.977Z,99.99
2017-06-16T05:21:35.867Z,99.99
2017-06-16T05:22:45.228Z,99.99
2017-06-16T05:23:54.118Z,99.99
2017-06-16T05:25:03.009Z,99.99
2017-06-16T05:26:12.221Z,99.99
2017-06-16T05:27:21.111Z,99.99
2017-06-16T05:28:30.305Z,99.99
2017-06-16T05:29:39.516Z,99.99
2017-06-16T05:30:48.405Z,99.99
2017-06-16T05:31:57.293Z,99.99
2017-06-16T05:33:06.506Z,99.99
2017-06-16T05:34:15.723Z,99.99
2017-06-16T05:35:24.614Z,99.99
2017-06-16T05:36:33.506Z,99.99
2017-06-16T05:37:42.719Z,99.99
2017-06-16T05:38:51.611Z,99.99
2017-06-16T05:40:00.652Z,99.99
2017-06-16T05:41:09.549Z,99.99
2017-06-16T05:42:18.438Z,99.99
2017-06-16T05:43:27.333Z,99.99
2017-06-16T05:44:36.220Z,99.99
2017-06-16T05:45:45.756Z,99.99
2017-06-16T05:46:54.643Z,99.99
2017-06-16T05:48:03.534Z,99.99
2017-06-16T05:49:12.423Z,99.99
2017-06-16T05:50:21.310Z,99.99
2017-06-16T05:51:30.950Z,99.99
2017-06-16T05:52:40.493Z,99.99
2017-06-16T05:53:50.036Z,99.99
2017-06-16T05:54:59.254Z,99.99
2017-06-16T05:56:08.145Z,99.99
2017-06-16T05:57:17.409Z,99.99
2017-06-16T05:58:26.295Z,99.99
2017-06-16T05:59:35.182Z,99.99
2017-06-16T06:00:44.067Z,99.99
2017-06-16T06:01:53.277Z,99.99
2017-06-16T06:03:02.597Z,99.99
2017-06-16T06:04:11.487Z,99.99
2017-06-16T06:05:20.375Z,99.99
2017-06-16T06:06:29.592Z,99.99
2017-06-16T06:07:38.808Z,99.99
2017-06-16T06:08:47.846Z,99.99
2017-06-16T06:09:56.735Z,99.99
2017-06-16T06:11:05.626Z,99.99
2017-06-16T06:12:14.850Z,99.99
2017-06-16T06:13:24.070Z,99.99
2017-06-16T06:14:33.258Z,99.99
2017-06-16T06:15:42.147Z,99.99
2017-06-16T06:16:51.359Z,99.99
2017-06-16T06:18:00.575Z,99.99
2017-06-16T06:19:09.464Z,99.99
2017-06-16T06:20:18.828Z,99.99
2017-06-16T06:21:27.715Z,99.99
2017-06-16T06:22:36.606Z,99.99
2017-06-16T06:23:45.495Z,99.99
2017-06-16T06:24:54.385Z,99.99
2017-06-16T06:26:03.577Z,99.99
2017-06-16T06:27:13.115Z,99.99
2017-06-16T06:28:22.978Z,99.99
2017-06-16T06:29:31.868Z,99.99
2017-06-16T06:30:40.761Z,99.99
2017-06-16T06:31:49.806Z,99.99
2017-06-16T06:32:58.697Z,99.99
2017-06-16T06:34:07.588Z,99.99
2017-06-16T06:35:16.519Z,99.99
2017-06-16T06:36:25.407Z,99.99
2017-06-16T06:37:34.545Z,99.99
2017-06-16T06:38:43.433Z,99.99
2017-06-16T06:39:52.330Z,99.99
2017-06-16T06:41:01.252Z,99.99
2017-06-16T06:42:10.489Z,99.99
2017-06-16T06:43:19.953Z,99.99
2017-06-16T06:44:29.494Z,99.99
2017-06-16T06:45:39.035Z,99.99
2017-06-16T06:46:48.573Z,99.99
2017-06-16T06:47:57.462Z,99.99
2017-06-16T06:49:06.401Z,99.99
2017-06-16T06:50:15.609Z,99.99
2017-06-16T06:51:24.826Z,99.99
2017-06-16T06:52:33.714Z,99.99
2017-06-16T06:53:42.927Z,99.99
2017-06-16T06:54:52.114Z,99.99
2017-06-16T06:56:01.013Z,99.99
2017-06-16T06:57:09.915Z,99.99
2017-06-16T06:58:19.144Z,99.99
2017-06-16T06:59:28.360Z,99.99
2017-06-16T07:00:37.497Z,99.99
2017-06-16T07:01:46.385Z,99.99
2017-06-16T07:02:55.275Z,99.99
2017-06-16T07:04:04.162Z,99.99
2017-06-16T07:05:13.378Z,99.99
2017-06-16T07:06:22.524Z,99.99
2017-06-16T07:07:31.410Z,99.99
2017-06-16T07:08:40.304Z,99.99
2017-06-16T07:09:49.195Z,99.99
2017-06-16T07:10:58.090Z,99.99
2017-06-16T07:12:07.357Z,99.99
2017-06-16T07:13:16.247Z,99.99
2017-06-16T07:14:25.463Z,99.99
2017-06-16T07:15:34.354Z,99.99
2017-06-16T07:16:43.241Z,99.99
2017-06-16T07:17:52.228Z,99.99
2017-06-16T07:19:01.121Z,99.99
2017-06-16T07:20:10.042Z,99.99
2017-06-16T07:21:18.938Z,99.99
2017-06-16T07:22:28.205Z,99.99
2017-06-16T07:23:37.767Z,98.1
2017-06-16T07:24:46.664Z,99.77
2017-06-16T07:25:55.555Z,99.73
2017-06-16T07:27:04.448Z,98.1
2017-06-16T07:28:13.335Z,97.9
2017-06-16T07:29:22.425Z,98
2017-06-16T07:30:31.319Z,98.67
2017-06-16T07:31:40.212Z,97.14
2017-06-16T07:32:49.120Z,98.38
2017-06-16T07:33:58.016Z,98.28
2017-06-16T07:35:07.053Z,96.03
2017-06-16T07:36:15.955Z,95.51
2017-06-16T07:37:25.174Z,94.74
2017-06-16T07:38:34.391Z,99.01
2017-06-16T07:39:43.600Z,97.09
2017-06-16T07:40:53.119Z,95.36
2017-06-16T07:42:02.015Z,96.51
2017-06-16T07:43:10.912Z,92.86
2017-06-16T07:44:19.804Z,91.05
2017-06-16T07:45:28.695Z,91.42
2017-06-16T07:46:38.062Z,91.81
2017-06-16T07:47:46.956Z,91.81
2017-06-16T07:48:55.858Z,91.62
2017-06-16T07:50:05.112Z,90.28
2017-06-16T07:51:14.009Z,88.84
2017-06-16T07:52:22.950Z,88.6
2017-06-16T07:53:31.841Z,90.95
2017-06-16T07:54:40.735Z,91.14
2017-06-16T07:55:49.957Z,88.07
2017-06-16T07:56:59.499Z,87.98
2017-06-16T07:58:08.720Z,87.01
2017-06-16T07:59:17.660Z,88.79
2017-06-16T08:00:26.890Z,89.79
2017-06-16T08:01:35.826Z,87.54
2017-06-16T08:02:44.727Z,86.63
2017-06-16T08:03:54.751Z,90.56
2017-06-16T08:05:03.653Z,90.18
2017-06-16T08:06:12.547Z,92.58
2017-06-16T08:07:21.438Z,89.32
2017-06-16T08:08:30.666Z,86.44
2017-06-16T08:09:39.854Z,90.08
2017-06-16T08:10:48.741Z,88.26
2017-06-16T08:11:57.633Z,88.26
2017-06-16T08:13:07.172Z,91.33
2017-06-16T08:14:16.061Z,87.11
2017-06-16T08:15:25.207Z,86.25
2017-06-16T08:16:34.106Z,88.65
2017-06-16T08:17:43.031Z,91.19
2017-06-16T08:18:51.925Z,88.26
2017-06-16T08:20:00.811Z,87.59
2017-06-16T08:21:09.756Z,88.07
2017-06-16T08:22:18.645Z,88.26
2017-06-16T08:23:27.860Z,85.38
2017-06-16T08:24:36.758Z,87.92
2017-06-16T08:25:45.653Z,87.73
2017-06-16T08:26:54.921Z,85.14
2017-06-16T08:28:04.141Z,84.66
2017-06-16T08:29:13.031Z,84.47
2017-06-16T08:30:21.927Z,88.59
2017-06-16T08:31:31.141Z,85.24
2017-06-16T08:32:40.181Z,85.71
2017-06-16T08:33:49.072Z,87.44
2017-06-16T08:34:57.970Z,86
2017-06-16T08:36:06.869Z,83.6
2017-06-16T08:37:16.086Z,84.27
2017-06-16T08:38:25.035Z,83.98
2017-06-16T08:39:33.925Z,83.89
2017-06-16T08:40:43.167Z,84.22
2017-06-16T08:41:52.053Z,82.74
2017-06-16T08:43:00.946Z,81.92
2017-06-16T08:44:10.313Z,82.74
2017-06-16T08:45:19.205Z,82.74
2017-06-16T08:46:28.107Z,83.31
2017-06-16T08:47:37.000Z,82.16
2017-06-16T08:48:46.216Z,82.35
2017-06-16T08:49:55.536Z,83.7
2017-06-16T08:51:04.429Z,84.85
2017-06-16T08:52:13.319Z,86.29
2017-06-16T08:53:22.210Z,85.71
2017-06-16T08:54:31.106Z,85.24
2017-06-16T08:55:40.151Z,85.95
2017-06-16T08:56:49.369Z,85.85
2017-06-16T08:57:58.270Z,81.72
2017-06-16T08:59:07.170Z,81.92
2017-06-16T09:00:16.067Z,81.53
2017-06-16T09:01:25.534Z,81.53
2017-06-16T09:02:34.439Z,83.64
2017-06-16T09:03:43.346Z,81.53
2017-06-16T09:04:52.236Z,80.86
2017-06-16T09:06:01.449Z,78.3
2017-06-16T09:07:10.493Z,78.3
2017-06-16T09:08:19.709Z,79.17
2017-06-16T09:09:28.926Z,79.36
2017-06-16T09:10:37.817Z,78.59
2017-06-16T09:11:47.035Z,79.46
2017-06-16T09:12:56.251Z,78.69
2017-06-16T09:14:05.153Z,79.07
2017-06-16T09:15:14.043Z,78.21
2017-06-16T09:16:22.935Z,77.63
2017-06-16T09:17:31.826Z,78.11
2017-06-16T09:18:40.920Z,78.11
2017-06-16T09:19:49.822Z,77.83
2017-06-16T09:20:58.713Z,77.73
2017-06-16T09:22:07.927Z,76.57
2017-06-16T09:23:16.821Z,78.59
2017-06-16T09:24:26.304Z,78.98
2017-06-16T09:25:35.205Z,78.4
2017-06-16T09:26:44.420Z,75.23
2017-06-16T09:27:53.652Z,75.75
2017-06-16T09:29:02.878Z,77.29
2017-06-16T09:30:11.872Z,76.04
2017-06-16T09:31:21.418Z,76.23
2017-06-16T09:32:30.312Z,76.32
2017-06-16T09:33:39.866Z,74.98
2017-06-16T09:34:48.755Z,75.37
2017-06-16T09:35:58.128Z,76.61
2017-06-16T09:37:07.020Z,79.21
2017-06-16T09:38:16.277Z,73.83
2017-06-16T09:39:25.178Z,75.94
2017-06-16T09:40:34.719Z,76.09
2017-06-16T09:41:44.522Z,77.06
2017-06-16T09:42:53.418Z,81.57
2017-06-16T09:44:02.315Z,79.55
2017-06-16T09:45:11.207Z,87.19
2017-06-16T09:46:20.433Z,96.13
2017-06-16T09:47:29.527Z,99.92
2017-06-16T09:48:38.420Z,99.99
2017-06-16T09:49:47.962Z,99.99
2017-06-16T09:50:56.857Z,99.99
2017-06-16T09:52:05.748Z,99.99
2017-06-16T09:53:14.690Z,99.99
2017-06-16T09:54:23.927Z,99.99
2017-06-16T09:55:32.818Z,99.99
2017-06-16T09:56:42.358Z,99.99
2017-06-16T09:57:51.248Z,99.99
2017-06-16T09:59:00.136Z,99.99
2017-06-16T10:00:09.027Z,99.99
2017-06-16T10:01:18.246Z,99.99
2017-06-16T10:02:27.138Z,99.99
2017-06-16T10:03:36.359Z,99.99
2017-06-16T10:04:45.247Z,99.99
2017-06-16T10:05:54.132Z,99.99
2017-06-16T10:07:03.676Z,99.99
2017-06-16T10:08:12.891Z,99.99
2017-06-16T10:09:22.108Z,99.99
2017-06-16T10:10:31.337Z,99.99
2017-06-16T10:11:40.232Z,99.99
2017-06-16T10:12:49.123Z,99.99
2017-06-16T10:13:58.014Z,99.99
2017-06-16T10:15:07.280Z,99.99
2017-06-16T10:16:16.573Z,99.99
2017-06-16T10:17:25.465Z,99.99
2017-06-16T10:18:34.678Z,99.99
2017-06-16T10:19:43.574Z,99.99
2017-06-16T10:20:52.462Z,99.99
2017-06-16T10:22:01.501Z,99.99
2017-06-16T10:23:10.393Z,99.99
2017-06-16T10:24:19.286Z,99.99
2017-06-16T10:25:29.148Z,99.99
2017-06-16T10:26:38.037Z,99.99
2017-06-16T10:27:46.931Z,99.99
2017-06-16T10:28:55.820Z,99.99
2017-06-16T10:30:04.709Z,99.99
2017-06-16T10:31:13.597Z,99.99
2017-06-16T10:32:22.487Z,99.99
2017-06-16T10:33:31.426Z,99.99
2017-06-16T10:34:40.316Z,99.99
2017-06-16T10:35:49.530Z,99.99
2017-06-16T10:36:58.745Z,99.99
2017-06-16T10:38:07.964Z,99.99
2017-06-16T10:39:17.229Z,99.63
2017-06-16T10:40:26.446Z,98.86
2017-06-16T10:41:35.341Z,99.72
2017-06-16T10:42:44.243Z,95.7
2017-06-16T10:43:53.134Z,97.9
2017-06-16T10:45:02.552Z,99.43
2017-06-16T10:46:11.448Z,97.61
2017-06-16T10:47:21.003Z,98.91
2017-06-16T10:48:30.224Z,97.66
2017-06-16T10:49:39.111Z,98.24
2017-06-16T10:50:48.152Z,97.66
2017-06-16T10:51:57.372Z,98.05
2017-06-16T10:53:06.262Z,94.69
2017-06-16T10:54:15.152Z,93.93
2017-06-16T10:55:24.040Z,97.95
2017-06-16T10:56:33.081Z,94.5
2017-06-16T10:57:41.978Z,94.21
2017-06-16T10:58:50.868Z,94.02
2017-06-16T10:59:59.754Z,95.46
2017-06-16T11:01:08.647Z,93.06
2017-06-16T11:02:17.844Z,94.98
2017-06-16T11:03:26.739Z,96.61
2017-06-16T11:04:35.952Z,96.32
2017-06-16T11:05:44.848Z,92.91
2017-06-16T11:06:54.062Z,99.19
2017-06-16T11:08:03.354Z,94.26
2017-06-16T11:09:12.570Z,92.91
2017-06-16T11:10:21.786Z,93.68
2017-06-16T11:11:30.676Z,95.7
2017-06-16T11:12:39.566Z,89.7
2017-06-16T11:13:48.833Z,86.25
2017-06-16T11:14:58.094Z,87.01
2017-06-16T11:16:06.987Z,85
2017-06-16T11:17:15.879Z,90.66
2017-06-16T11:18:24.776Z,91.05
2017-06-16T11:19:33.818Z,88.74
2017-06-16T11:20:43.030Z,87.11
2017-06-16T11:21:52.259Z,85.58
2017-06-16T11:23:01.797Z,82.51
2017-06-16T11:24:11.015Z,85.1
2017-06-16T11:25:20.492Z,86.72
2017-06-16T11:26:29.385Z,84.71
2017-06-16T11:27:38.602Z,88.07
2017-06-16T11:28:47.493Z,85.58
2017-06-16T11:29:57.042Z,84.91
2017-06-16T11:31:06.308Z,83.85
2017-06-16T11:32:15.523Z,85.67
2017-06-16T11:33:24.421Z,82.7
2017-06-16T11:34:33.311Z,85.1
2017-06-16T11:35:42.569Z,82.21
2017-06-16T11:36:52.440Z,80.87
2017-06-16T11:38:01.660Z,79.82
2017-06-16T11:39:10.550Z,83.75
2017-06-16T11:40:19.766Z,82.21
2017-06-16T11:41:28.664Z,80.11
2017-06-16T11:42:38.132Z,80.97
2017-06-16T11:43:47.038Z,79.82
2017-06-16T11:44:55.930Z,81.16
2017-06-16T11:46:04.823Z,80.91
2017-06-16T11:47:14.033Z,79.86
2017-06-16T11:48:23.849Z,83.31
2017-06-16T11:49:32.738Z,80.05
2017-06-16T11:50:41.634Z,80.73
2017-06-16T11:51:50.852Z,79.47
2017-06-16T11:52:59.744Z,80.63
2017-06-16T11:54:09.108Z,78.42
2017-06-16T11:55:17.996Z,81.78
2017-06-16T11:56:26.888Z,79.28
2017-06-16T11:57:35.822Z,80.09
2017-06-16T11:58:44.731Z,76.34
2017-06-16T11:59:53.779Z,79.8
2017-06-16T12:01:02.728Z,75.96
2017-06-16T12:02:11.949Z,80.76
2017-06-16T12:03:20.841Z,79.03
2017-06-16T12:04:30.059Z,80.57
2017-06-16T12:05:39.102Z,75.77
2017-06-16T12:06:48.665Z,76.5
2017-06-16T12:07:57.894Z,75.54
2017-06-16T12:09:06.785Z,77.75
2017-06-16T12:10:15.679Z,76.02
2017-06-16T12:11:24.622Z,77.08
2017-06-16T12:12:33.839Z,78.42
2017-06-16T12:13:42.748Z,79.57
2017-06-16T12:14:52.615Z,78.52
2017-06-16T12:16:01.508Z,78.42
2017-06-16T12:17:10.876Z,76.73
2017-06-16T12:18:19.772Z,77.4
2017-06-16T12:19:28.669Z,77.5
2017-06-16T12:20:38.208Z,75.67
2017-06-16T12:21:47.429Z,77.4
2017-06-16T12:22:57.506Z,73.69
2017-06-16T12:24:07.050Z,73.31
2017-06-16T12:25:15.945Z,73.6
2017-06-16T12:26:24.842Z,74.65
2017-06-16T12:27:33.757Z,74.85
2017-06-16T12:28:43.249Z,75.62
2017-06-16T12:29:52.472Z,77.83
2017-06-16T12:31:01.686Z,75.67
2017-06-16T12:32:10.902Z,80.38
2017-06-16T12:33:19.799Z,77.88
2017-06-16T12:34:28.844Z,76.73
2017-06-16T12:35:38.065Z,80.66
2017-06-16T12:36:46.957Z,83.54
2017-06-16T12:37:55.851Z,84.31
2017-06-16T12:39:04.749Z,80.57
2017-06-16T12:40:14.120Z,80.19
2017-06-16T12:41:23.014Z,79.61
2017-06-16T12:42:32.233Z,79.71
2017-06-16T12:43:41.127Z,79.42
2017-06-16T12:44:50.017Z,79.32
2017-06-16T12:45:59.285Z,81.63
2017-06-16T12:47:08.214Z,79.9
2017-06-16T12:48:17.105Z,82.78
2017-06-16T12:49:25.999Z,81.43
2017-06-16T12:50:34.895Z,79.13
2017-06-16T12:51:44.764Z,85.18
2017-06-16T12:52:54.311Z,82.68
2017-06-16T12:54:04.178Z,82.63
2017-06-16T12:55:13.072Z,80.51
2017-06-16T12:56:22.620Z,81.24
2017-06-16T12:57:31.988Z,77.06
2017-06-16T12:58:41.212Z,75.38
2017-06-16T12:59:50.430Z,77.01
2017-06-16T13:00:59.974Z,76.88
2017-06-16T13:02:08.869Z,81.78
2017-06-16T13:03:17.861Z,79.86
2017-06-16T13:04:26.756Z,86.48
2017-06-16T13:05:35.977Z,88.84
2017-06-16T13:06:44.867Z,89.79
2017-06-16T13:07:54.730Z,93.59
2017-06-16T13:09:04.104Z,93.4
2017-06-16T13:10:13.000Z,92.97
2017-06-16T13:11:21.919Z,98.05
2017-06-16T13:12:30.810Z,99.99
2017-06-16T13:13:39.701Z,98.1
2017-06-16T13:14:48.893Z,97.33
2017-06-16T13:15:57.785Z,98.96
2017-06-16T13:17:07.000Z,96.84
2017-06-16T13:18:16.215Z,94.74
2017-06-16T13:19:25.103Z,99.53
2017-06-16T13:20:34.290Z,97.09
2017-06-16T13:21:43.191Z,95.79
2017-06-16T13:22:52.443Z,93.98
2017-06-16T13:24:01.988Z,95.79
2017-06-16T13:25:11.204Z,93.98
2017-06-16T13:26:20.245Z,96.27
2017-06-16T13:27:29.137Z,92.87
2017-06-16T13:28:38.024Z,92.35
2017-06-16T13:29:46.918Z,95.94
2017-06-16T13:30:56.457Z,93.16
2017-06-16T13:32:05.557Z,92.97
2017-06-16T13:33:14.447Z,92.3
2017-06-16T13:34:23.336Z,92.2
2017-06-16T13:35:32.222Z,91.05
2017-06-16T13:36:41.118Z,89.23
2017-06-16T13:37:50.586Z,90.42
2017-06-16T13:38:59.472Z,87.64
2017-06-16T13:40:08.690Z,92.54
2017-06-16T13:41:18.240Z,89.94
2017-06-16T13:42:27.131Z,86.4
2017-06-16T13:43:36.543Z,85.53
2017-06-16T13:44:45.781Z,86.3
2017-06-16T13:45:54.997Z,85.92
2017-06-16T13:47:04.216Z,85.72
2017-06-16T13:48:13.111Z,88.89
2017-06-16T13:49:22.245Z,85.53
2017-06-16T13:50:31.475Z,84.86
2017-06-16T13:51:40.364Z,84.19
2017-06-16T13:52:49.251Z,86.4
2017-06-16T13:53:58.137Z,84
2017-06-16T13:55:07.172Z,84.19
2017-06-16T13:56:16.387Z,85.44
2017-06-16T13:57:25.599Z,83.81
2017-06-16T13:58:34.815Z,84.86
2017-06-16T13:59:43.703Z,87.26
2017-06-16T14:00:52.920Z,86.49
2017-06-16T14:02:01.810Z,84.86
2017-06-16T14:03:11.348Z,84.38
2017-06-16T14:04:20.239Z,85.25
2017-06-16T14:05:29.129Z,85.72
2017-06-16T14:06:38.070Z,87.07
2017-06-16T14:07:47.280Z,84.19
2017-06-16T14:08:56.821Z,84.38
2017-06-16T14:10:06.364Z,87.35
2017-06-16T14:11:15.264Z,83.52
2017-06-16T14:12:24.503Z,85.05
2017-06-16T14:13:33.391Z,85.82
2017-06-16T14:14:42.608Z,84.58
2017-06-16T14:15:51.497Z,84.33
2017-06-16T14:17:00.716Z,84.95
2017-06-16T14:18:10.083Z,84.86
2017-06-16T14:19:19.302Z,87.21
2017-06-16T14:20:28.197Z,85.77
2017-06-16T14:21:37.089Z,88.02
2017-06-16T14:22:46.630Z,86.21
2017-06-16T14:23:56.921Z,84.86
2017-06-16T14:25:06.134Z,87.07
2017-06-16T14:26:15.025Z,87.74
2017-06-16T14:27:23.922Z,86.88
2017-06-16T14:28:32.814Z,88.89
2017-06-16T14:29:41.751Z,86.78
2017-06-16T14:30:50.966Z,85.92
2017-06-16T14:32:00.182Z,87.26
2017-06-16T14:33:09.411Z,87.07
2017-06-16T14:34:18.301Z,90.61
2017-06-16T14:35:27.240Z,88.6
2017-06-16T14:36:36.127Z,89.37
2017-06-16T14:37:45.024Z,88.7
2017-06-16T14:38:53.912Z,89.18
2017-06-16T14:40:02.802Z,90.42
2017-06-16T14:41:11.944Z,88.22
2017-06-16T14:42:20.837Z,89.47
2017-06-16T14:43:29.725Z,88.79
2017-06-16T14:44:38.619Z,87.84
2017-06-16T14:45:47.514Z,89.27
2017-06-16T14:46:56.935Z,89.85
2017-06-16T14:48:05.825Z,87.93
2017-06-16T14:49:15.042Z,89.85
2017-06-16T14:50:23.934Z,89.27
2017-06-16T14:51:33.477Z,88.89